マニラ/ニノイ・アキノ の空港の天気 - METARとTAF

ニノイ・アキノ国際空港 ( RPLL / MNL ) - フィリピン マニラ
飛行場実況気象(Metar)
観測時間10/20 12:00 PHT (10/20 04:00 UTC)
風向・風速南南東 4m/s
視程10km以上
天気現象
全天の4割程度の雲 雲底高度 700m
全天の4割程度の雲 雲底高度 9140m
気温32℃
湿度67%
気圧1011hPa
METARRPLL 200400Z 15008KT 080V210 9999 SCT023 SCT300 32/25 Q1011 NOSIG RMK A2985
過去の天気等 Google飛行場航空写真 Wunderground天気予報

過去48時間のMETAR

飛行場予報(TAF)
発表時間: 10/20 07:00 PHT (10/19 23:00 UTC)
予報対象時間: 20日8時 PHT ~ 21日14時 PHT
風向・風速東南東 3m/s
視程10km以上
少しの雲 雲底高度 760m
全天の4割程度の雲 雲底高度 3050m
20日8時 PHT ~ 20日14時 PHT に一時的に
風向・風速西北西 4m/s
天気現象弱い雷雨
少しの積乱雲 雲底高度 670m
全天の4割程度の雲 雲底高度 700m
全天の8割程度の雲 雲底高度 2740m
20日14時 PHT ~ 20日20時 PHT に一時的に
風向・風速南 5m/s
少しの積乱雲 雲底高度 670m
全天の8割程度の雲 雲底高度 2740m
TAF RPLL 192300Z 2000/2106 11006KT 9999 FEW025 SCT100 TX32/2006Z TN26/2021Z
TEMPO 2000/2006 29008KT -TSRA FEW022CB SCT023 BKN090
TEMPO 2006/2012 17010KT FEW022CB BKN090